Auburntown, Tennessee
Current Conditions -  °F | °C
As of 7:53 PM on Saturday 22 Nov 2014 (Local Time) from KBNA Reporting Station
Scattered Clouds Scattered Clouds  
Wind Chill: 56°   Ceiling: Unl
Heat Index: 56°   Visibility: 10mi
Dew Point: 41°   Wind: 8mph
Humidity: 57%   Direction: 170°S
Pressure: 30.13"   Gusts: NA
Location:  35.95°N, 86.1°W
Report Text: KBNA 230153Z 17007KT 10SM FEW090 SCT140 13/05 A3013 RMK AO2 SLP201 T01330050
Loading
Personal Weather Stations






























Interactive Weather Map New forecast layout! Learn more

10-Day Weather Forecast

Advertisements
Track Severe Weather on mobile